Time;durP1;ratioP1;P1;durP2;ratioP2;P2;SDS_P1;SDS_P2;PMS_P1;PMS_P2;Temp;Humidity;BMP_temperature;BMP_pressure;BME280_temperature;BME280_humidity;BME280_pressure;Samples;Min_cycle;Max_cycle;Signal;HPM_P1;HPM_P2
2024/01/19 00:01:35;;;;;;;1.58;0.40;;;;;;;;;;4997513;28;20964;-68
2024/01/19 00:04:01;;;;;;;4.55;0.40;;;;;;;;;;4999731;28;20047;-68
2024/01/19 00:06:27;;;;;;;2.22;0.60;;;;;;;;;;5000004;28;20040;-68
2024/01/19 00:08:53;;;;;;;2.15;0.52;;;;;;;;;;4999889;28;20083;-67
2024/01/19 00:11:19;;;;;;;3.38;0.35;;;;;;;;;;5000120;28;20056;-67
2024/01/19 00:13:45;;;;;;;1.70;0.47;;;;;;;;;;5001446;28;20040;-67
2024/01/19 00:16:12;;;;;;;4.18;0.70;;;;;;;;;;5000748;28;20036;-67
2024/01/19 00:18:38;;;;;;;4.97;0.50;;;;;;;;;;4999755;28;22003;-68
2024/01/19 00:21:04;;;;;;;1.30;0.40;;;;;;;;;;5000209;28;20048;-68
2024/01/19 00:23:30;;;;;;;5.07;0.50;;;;;;;;;;4999041;28;21255;-67
2024/01/19 00:25:56;;;;;;;3.63;0.40;;;;;;;;;;5000247;28;20567;-67
2024/01/19 00:28:22;;;;;;;2.40;0.32;;;;;;;;;;4997454;28;20075;-68
2024/01/19 00:30:48;;;;;;;4.78;0.40;;;;;;;;;;4999216;28;20045;-67
2024/01/19 00:33:14;;;;;;;1.67;0.40;;;;;;;;;;4999783;28;20158;-68
2024/01/19 00:35:40;;;;;;;4.05;0.43;;;;;;;;;;4999241;28;20040;-67
2024/01/19 00:38:06;;;;;;;3.17;0.80;;;;;;;;;;4999763;28;20165;-68
2024/01/19 00:40:32;;;;;;;4.45;0.52;;;;;;;;;;4999439;28;20041;-68
2024/01/19 00:42:58;;;;;;;4.00;0.98;;;;;;;;;;4998441;28;20044;-68
2024/01/19 00:45:24;;;;;;;1.60;0.40;;;;;;;;;;4996934;28;20748;-68
2024/01/19 00:47:50;;;;;;;3.90;0.68;;;;;;;;;;4997418;28;20036;-68
2024/01/19 00:50:16;;;;;;;5.32;0.75;;;;;;;;;;4994477;28;20548;-68
2024/01/19 00:52:42;;;;;;;1.33;0.43;;;;;;;;;;4995621;28;21325;-67
2024/01/19 00:55:10;;;;;;;2.70;0.50;;;;;;;;;;4993810;28;20265;-68
2024/01/19 00:57:37;;;;;;;1.38;0.30;;;;;;;;;;4996874;28;20029;-67
2024/01/19 01:00:03;;;;;;;2.55;0.73;;;;;;;;;;4994581;28;20179;-67
2024/01/19 01:02:30;;;;;;;2.33;0.40;;;;;;;;;;4997821;28;20091;-68
2024/01/19 01:04:56;;;;;;;1.60;0.40;;;;;;;;;;4973201;28;20075;-68
2024/01/19 01:07:22;;;;;;;3.35;0.40;;;;;;;;;;4995824;28;20033;-68
2024/01/19 01:09:48;;;;;;;3.00;0.55;;;;;;;;;;4998471;28;20055;-68
2024/01/19 01:12:14;;;;;;;3.03;0.82;;;;;;;;;;4981993;28;20048;-67
2024/01/19 01:14:40;;;;;;;2.35;0.68;;;;;;;;;;5003679;28;20045;-67
2024/01/19 01:17:06;;;;;;;4.63;0.50;;;;;;;;;;5001204;28;20680;-67
2024/01/19 01:19:32;;;;;;;3.50;0.60;;;;;;;;;;5002137;28;20713;-67
2024/01/19 01:21:59;;;;;;;2.53;0.55;;;;;;;;;;5002311;28;20436;-68
2024/01/19 01:24:25;;;;;;;1.50;0.50;;;;;;;;;;4998788;28;20657;-68
2024/01/19 01:26:51;;;;;;;1.25;0.50;;;;;;;;;;4999747;28;20032;-68
2024/01/19 01:29:17;;;;;;;3.72;0.63;;;;;;;;;;5002967;28;20052;-67
2024/01/19 01:31:44;;;;;;;2.88;0.70;;;;;;;;;;5003407;28;20524;-68
2024/01/19 01:34:10;;;;;;;3.28;0.70;;;;;;;;;;5004240;28;20159;-67
2024/01/19 01:36:36;;;;;;;2.72;0.52;;;;;;;;;;5004149;28;20045;-67
2024/01/19 01:39:02;;;;;;;2.75;0.47;;;;;;;;;;5003419;28;20783;-67
2024/01/19 01:41:28;;;;;;;4.85;0.70;;;;;;;;;;5003217;28;20044;-67
2024/01/19 01:43:54;;;;;;;4.38;0.60;;;;;;;;;;5001318;28;21030;-67
2024/01/19 01:46:20;;;;;;;2.95;0.50;;;;;;;;;;5003966;28;20033;-67
2024/01/19 01:48:46;;;;;;;11.30;0.80;;;;;;;;;;4988340;28;20044;-67
2024/01/19 01:51:13;;;;;;;3.15;0.60;;;;;;;;;;5002756;28;20356;-67
2024/01/19 01:53:39;;;;;;;3.72;0.60;;;;;;;;;;5002763;28;20634;-67
2024/01/19 01:56:08;;;;;;;3.35;0.57;;;;;;;;;;5003047;28;20059;-67
2024/01/19 01:58:34;;;;;;;3.05;0.60;;;;;;;;;;5002621;28;20075;-67
2024/01/19 02:01:00;;;;;;;4.15;0.90;;;;;;;;;;5002288;28;20216;-67
2024/01/19 02:03:26;;;;;;;3.28;0.50;;;;;;;;;;5003793;28;21282;-67
2024/01/19 02:05:52;;;;;;;4.72;0.80;;;;;;;;;;5002471;28;20151;-67
2024/01/19 02:08:18;;;;;;;2.58;0.40;;;;;;;;;;5003435;28;20120;-67
2024/01/19 02:10:44;;;;;;;2.83;0.65;;;;;;;;;;5002551;28;20130;-67
2024/01/19 02:13:10;;;;;;;5.70;0.88;;;;;;;;;;5003359;28;20049;-67
2024/01/19 02:15:37;;;;;;;3.35;0.70;;;;;;;;;;5002256;28;20064;-67
2024/01/19 02:18:04;;;;;;;7.50;1.20;;;;;;;;;;5003067;28;20053;-67
2024/01/19 02:20:30;;;;;;;4.22;1.00;;;;;;;;;;5002580;28;20052;-67
2024/01/19 02:22:56;;;;;;;6.93;0.70;;;;;;;;;;5001793;28;20037;-67
2024/01/19 02:25:23;;;;;;;4.80;0.95;;;;;;;;;;5001312;28;21530;-67
2024/01/19 02:27:49;;;;;;;3.90;0.70;;;;;;;;;;5003486;28;20025;-67
2024/01/19 02:30:15;;;;;;;3.03;2.22;;;;;;;;;;5001701;28;20045;-67
2024/01/19 02:32:41;;;;;;;7.38;1.13;;;;;;;;;;5001152;28;20037;-67
2024/01/19 02:35:08;;;;;;;3.08;0.65;;;;;;;;;;5003854;28;20041;-67
2024/01/19 02:37:34;;;;;;;6.80;0.80;;;;;;;;;;5001287;28;20745;-67
2024/01/19 02:40:00;;;;;;;4.60;0.80;;;;;;;;;;5002770;28;20033;-67
2024/01/19 02:42:26;;;;;;;5.03;0.80;;;;;;;;;;5001018;28;20040;-67
2024/01/19 02:44:52;;;;;;;5.25;0.70;;;;;;;;;;5001596;28;20053;-67
2024/01/19 02:47:18;;;;;;;2.67;0.60;;;;;;;;;;5002134;28;21260;-67
2024/01/19 02:49:44;;;;;;;3.40;0.85;;;;;;;;;;5002121;28;21054;-67
2024/01/19 02:52:10;;;;;;;6.80;1.00;;;;;;;;;;5001142;28;20578;-67
2024/01/19 02:54:36;;;;;;;2.47;0.63;;;;;;;;;;5001438;28;20037;-67
2024/01/19 02:57:02;;;;;;;5.45;1.20;;;;;;;;;;5000735;28;20048;-67
2024/01/19 02:59:29;;;;;;;9.18;0.95;;;;;;;;;;5001685;28;20165;-67
2024/01/19 03:01:55;;;;;;;4.05;0.70;;;;;;;;;;5001682;28;20096;-67
2024/01/19 03:04:21;;;;;;;6.22;1.67;;;;;;;;;;5001278;28;20511;-67
2024/01/19 03:06:47;;;;;;;3.15;0.68;;;;;;;;;;5002034;28;20483;-67
2024/01/19 03:09:13;;;;;;;6.40;0.90;;;;;;;;;;5000959;28;21539;-67
2024/01/19 03:11:39;;;;;;;6.32;1.13;;;;;;;;;;5002741;28;20686;-67
2024/01/19 03:14:05;;;;;;;2.95;0.50;;;;;;;;;;5000181;28;21873;-67
2024/01/19 03:16:31;;;;;;;5.57;0.77;;;;;;;;;;4985559;28;20761;-66
2024/01/19 03:19:00;;;;;;;5.00;1.05;;;;;;;;;;5001803;28;20763;-67
2024/01/19 03:21:27;;;;;;;4.65;0.80;;;;;;;;;;5001968;28;20041;-66
2024/01/19 03:23:53;;;;;;;7.47;1.10;;;;;;;;;;5001498;28;20036;-66
2024/01/19 03:26:19;;;;;;;9.38;0.80;;;;;;;;;;5003281;28;20392;-66
2024/01/19 03:28:45;;;;;;;6.13;1.55;;;;;;;;;;4985612;28;20037;-66
2024/01/19 03:31:11;;;;;;;3.90;0.90;;;;;;;;;;5002071;28;20134;-67
2024/01/19 03:33:37;;;;;;;6.88;1.10;;;;;;;;;;5001357;28;20118;-67
2024/01/19 03:36:03;;;;;;;7.10;1.33;;;;;;;;;;5002411;28;20072;-66
2024/01/19 03:38:30;;;;;;;4.03;1.13;;;;;;;;;;5002513;28;20086;-67
2024/01/19 03:40:57;;;;;;;9.13;1.70;;;;;;;;;;5001438;28;20056;-67
2024/01/19 03:43:24;;;;;;;6.00;1.13;;;;;;;;;;5002230;28;20044;-67
2024/01/19 03:45:50;;;;;;;7.65;1.48;;;;;;;;;;5002716;28;20037;-67
2024/01/19 03:48:16;;;;;;;9.05;1.95;;;;;;;;;;5001046;28;20029;-67
2024/01/19 03:50:42;;;;;;;4.53;0.85;;;;;;;;;;5002057;28;20168;-67
2024/01/19 03:53:08;;;;;;;11.90;1.10;;;;;;;;;;5002154;28;20174;-67
2024/01/19 03:55:34;;;;;;;4.40;1.10;;;;;;;;;;5000610;28;20068;-67
2024/01/19 03:58:00;;;;;;;8.05;1.00;;;;;;;;;;5001272;28;20032;-67
2024/01/19 04:00:26;;;;;;;4.07;0.75;;;;;;;;;;5000606;28;20036;-66
2024/01/19 04:02:52;;;;;;;7.85;0.95;;;;;;;;;;5001086;28;20033;-67
2024/01/19 04:05:18;;;;;;;9.30;1.65;;;;;;;;;;5000983;28;20033;-67
2024/01/19 04:07:44;;;;;;;6.97;1.08;;;;;;;;;;5001486;28;20472;-67
2024/01/19 04:10:10;;;;;;;4.90;0.98;;;;;;;;;;5001806;28;20037;-66
2024/01/19 04:12:36;;;;;;;8.05;1.35;;;;;;;;;;5000730;28;20042;-66
2024/01/19 04:15:03;;;;;;;11.32;1.00;;;;;;;;;;5001326;28;20037;-67
2024/01/19 04:17:29;;;;;;;3.45;0.95;;;;;;;;;;5002840;28;20675;-67
2024/01/19 04:19:56;;;;;;;3.97;0.73;;;;;;;;;;5001388;28;20136;-67
2024/01/19 04:22:22;;;;;;;8.77;0.95;;;;;;;;;;5000919;28;20127;-67
2024/01/19 04:24:48;;;;;;;4.95;0.80;;;;;;;;;;5002005;28;20324;-67
2024/01/19 04:27:14;;;;;;;6.28;0.90;;;;;;;;;;4999249;28;20070;-67
2024/01/19 04:29:40;;;;;;;6.22;1.60;;;;;;;;;;5001472;28;20052;-66
2024/01/19 04:32:06;;;;;;;9.40;1.00;;;;;;;;;;5000336;28;20076;-67
2024/01/19 04:34:32;;;;;;;7.32;0.80;;;;;;;;;;5001000;28;20041;-67
2024/01/19 04:36:59;;;;;;;7.50;0.88;;;;;;;;;;5001231;28;20049;-66
2024/01/19 04:39:25;;;;;;;7.72;0.95;;;;;;;;;;5001874;28;20056;-67
2024/01/19 04:41:51;;;;;;;5.22;0.77;;;;;;;;;;5000464;28;20041;-67
2024/01/19 04:44:18;;;;;;;7.07;1.30;;;;;;;;;;5001966;28;20041;-67
2024/01/19 04:46:44;;;;;;;3.95;0.77;;;;;;;;;;4982884;28;20511;-66
2024/01/19 04:49:10;;;;;;;12.80;1.65;;;;;;;;;;5005950;28;20518;-67
2024/01/19 04:51:36;;;;;;;10.10;1.25;;;;;;;;;;5005079;28;20032;-67
2024/01/19 04:54:02;;;;;;;18.17;2.10;;;;;;;;;;5005056;28;20052;-66
2024/01/19 04:56:28;;;;;;;7.47;1.73;;;;;;;;;;5005895;28;20857;-67
2024/01/19 04:58:54;;;;;;;8.38;0.88;;;;;;;;;;5004403;28;20040;-66
2024/01/19 05:01:20;;;;;;;4.53;0.88;;;;;;;;;;5005973;28;20040;-67
2024/01/19 05:03:46;;;;;;;10.15;1.67;;;;;;;;;;5004011;28;20037;-67
2024/01/19 05:06:13;;;;;;;15.93;2.42;;;;;;;;;;5005256;28;22033;-67
2024/01/19 05:08:39;;;;;;;7.80;1.08;;;;;;;;;;5004508;28;20097;-67
2024/01/19 05:11:05;;;;;;;8.18;1.33;;;;;;;;;;5004035;28;20041;-66
2024/01/19 05:13:31;;;;;;;13.80;2.30;;;;;;;;;;5004601;28;20075;-67
2024/01/19 05:15:57;;;;;;;22.70;3.05;;;;;;;;;;5004313;28;20045;-67
2024/01/19 05:18:23;;;;;;;11.68;1.10;;;;;;;;;;5004291;28;20064;-67
2024/01/19 05:20:50;;;;;;;5.35;1.27;;;;;;;;;;5005218;28;20094;-67
2024/01/19 05:23:16;;;;;;;6.53;1.83;;;;;;;;;;5004195;28;20037;-67
2024/01/19 05:25:42;;;;;;;9.55;1.27;;;;;;;;;;5005547;28;20044;-67
2024/01/19 05:28:08;;;;;;;9.90;1.48;;;;;;;;;;5004597;28;20114;-67
2024/01/19 05:30:34;;;;;;;6.53;1.00;;;;;;;;;;5003672;28;20037;-67
2024/01/19 05:33:00;;;;;;;5.18;0.95;;;;;;;;;;5003471;28;20408;-67
2024/01/19 05:35:26;;;;;;;9.68;1.63;;;;;;;;;;5005040;28;20167;-67
2024/01/19 05:37:52;;;;;;;7.85;1.42;;;;;;;;;;5003313;28;20133;-67
2024/01/19 05:40:18;;;;;;;6.07;1.05;;;;;;;;;;5002890;28;20087;-67
2024/01/19 05:42:44;;;;;;;8.82;1.00;;;;;;;;;;5004742;28;20043;-67
2024/01/19 05:45:10;;;;;;;4.45;0.77;;;;;;;;;;5004504;28;20029;-67
2024/01/19 05:47:36;;;;;;;9.63;1.08;;;;;;;;;;5004458;28;20124;-67
2024/01/19 05:50:02;;;;;;;7.28;1.02;;;;;;;;;;5003750;28;20144;-67
2024/01/19 05:52:29;;;;;;;9.10;1.13;;;;;;;;;;5003746;28;20534;-67
2024/01/19 05:54:55;;;;;;;14.30;1.92;;;;;;;;;;5004211;28;20165;-67
2024/01/19 05:57:21;;;;;;;6.78;1.20;;;;;;;;;;5003193;28;20074;-67
2024/01/19 05:59:48;;;;;;;10.88;1.45;;;;;;;;;;5003618;28;20118;-67
2024/01/19 06:02:14;;;;;;;12.48;1.60;;;;;;;;;;5002830;28;20029;-67
2024/01/19 06:04:41;;;;;;;9.07;1.23;;;;;;;;;;5004079;28;20082;-67
2024/01/19 06:07:07;;;;;;;10.65;1.10;;;;;;;;;;5002931;28;20044;-67
2024/01/19 06:09:33;;;;;;;10.80;1.25;;;;;;;;;;5003417;28;20032;-67
2024/01/19 06:11:59;;;;;;;10.30;1.42;;;;;;;;;;5004170;28;20091;-67
2024/01/19 06:14:25;;;;;;;7.70;1.27;;;;;;;;;;5002554;28;20065;-67
2024/01/19 06:16:52;;;;;;;8.65;0.93;;;;;;;;;;5001260;28;20140;-67
2024/01/19 06:19:18;;;;;;;4.53;0.80;;;;;;;;;;5003146;28;20095;-67
2024/01/19 06:21:45;;;;;;;4.65;0.73;;;;;;;;;;5004104;28;20037;-67
2024/01/19 06:24:15;;;;;;;7.57;1.40;;;;;;;;;;5015489;28;20041;-67
2024/01/19 06:26:43;;;;;;;4.13;0.85;;;;;;;;;;5016639;28;20025;-67
2024/01/19 06:29:09;;;;;;;4.78;0.80;;;;;;;;;;5016194;28;20025;-67
2024/01/19 06:31:42;;;;;;;6.70;1.45;;;;;;;;;;5015373;28;20028;-66
2024/01/19 06:34:08;;;;;;;5.67;1.13;;;;;;;;;;5017381;28;21684;-67
2024/01/19 06:36:34;;;;;;;3.78;0.60;;;;;;;;;;5016580;28;20488;-67
2024/01/19 06:39:00;;;;;;;7.85;0.93;;;;;;;;;;5010563;28;20773;-66
2024/01/19 06:41:26;;;;;;;6.32;0.95;;;;;;;;;;5017765;28;20519;-66
2024/01/19 06:43:52;;;;;;;7.25;0.98;;;;;;;;;;5017010;28;20492;-66
2024/01/19 06:46:18;;;;;;;3.60;0.70;;;;;;;;;;5017484;28;20029;-67
2024/01/19 06:48:44;;;;;;;6.88;1.35;;;;;;;;;;5019694;28;20040;-67
2024/01/19 06:51:16;;;;;;;7.25;1.52;;;;;;;;;;5016061;28;20590;-67
2024/01/19 06:53:42;;;;;;;11.40;1.73;;;;;;;;;;5006326;28;20163;-66
2024/01/19 06:56:08;;;;;;;13.00;1.30;;;;;;;;;;5002727;28;20061;-66
2024/01/19 06:58:34;;;;;;;12.60;1.77;;;;;;;;;;5001604;28;20065;-68
2024/01/19 07:01:00;;;;;;;8.52;1.10;;;;;;;;;;5002594;28;20083;-66
2024/01/19 07:03:26;;;;;;;10.02;1.33;;;;;;;;;;5003371;28;20853;-67
2024/01/19 07:05:52;;;;;;;9.40;1.30;;;;;;;;;;5002904;28;20616;-65
2024/01/19 07:08:18;;;;;;;10.25;1.30;;;;;;;;;;5001319;28;20668;-66
2024/01/19 07:10:44;;;;;;;8.80;1.80;;;;;;;;;;5011030;28;20646;-66
2024/01/19 07:13:10;;;;;;;8.80;1.65;;;;;;;;;;5012092;28;20041;-66
2024/01/19 07:15:36;;;;;;;12.27;1.40;;;;;;;;;;5015319;28;20161;-65
2024/01/19 07:18:02;;;;;;;4.80;1.17;;;;;;;;;;5015853;28;20088;-65
2024/01/19 07:20:28;;;;;;;11.52;1.70;;;;;;;;;;5003084;28;20040;-66
2024/01/19 07:22:55;;;;;;;9.43;1.58;;;;;;;;;;5002206;28;20048;-66
2024/01/19 07:25:21;;;;;;;8.90;1.38;;;;;;;;;;5002315;28;20043;-66
2024/01/19 07:27:47;;;;;;;10.98;1.45;;;;;;;;;;5001867;28;20041;-65
2024/01/19 07:30:13;;;;;;;8.18;1.10;;;;;;;;;;5002198;28;20788;-65
2024/01/19 07:32:39;;;;;;;7.72;1.50;;;;;;;;;;5001822;28;20048;-66
2024/01/19 07:35:05;;;;;;;10.60;1.40;;;;;;;;;;5001154;28;20076;-66
2024/01/19 07:37:31;;;;;;;4.32;1.02;;;;;;;;;;5002811;28;20040;-66
2024/01/19 07:39:57;;;;;;;15.48;1.65;;;;;;;;;;4980260;28;20060;-66
2024/01/19 07:42:23;;;;;;;5.72;1.17;;;;;;;;;;4984433;28;20138;-65
2024/01/19 07:44:49;;;;;;;13.02;3.25;;;;;;;;;;4999291;28;20148;-66
2024/01/19 07:47:15;;;;;;;11.13;1.77;;;;;;;;;;5003799;28;20036;-65
2024/01/19 07:49:41;;;;;;;9.63;2.03;;;;;;;;;;5009291;28;20040;-66
2024/01/19 07:52:07;;;;;;;13.65;1.88;;;;;;;;;;5016398;28;20029;-65
2024/01/19 07:54:33;;;;;;;7.45;1.65;;;;;;;;;;5016353;28;20099;-65
2024/01/19 07:56:59;;;;;;;18.40;3.03;;;;;;;;;;5012157;28;20076;-65
2024/01/19 07:59:25;;;;;;;10.68;2.38;;;;;;;;;;5014970;28;20052;-65
2024/01/19 08:01:51;;;;;;;12.40;1.40;;;;;;;;;;5008845;28;20033;-65
2024/01/19 08:04:18;;;;;;;8.05;1.70;;;;;;;;;;5011539;28;20029;-65
2024/01/19 08:06:44;;;;;;;10.27;1.55;;;;;;;;;;4998886;28;20091;-65
2024/01/19 08:09:13;;;;;;;7.82;1.52;;;;;;;;;;5001248;28;20047;-65
2024/01/19 08:11:39;;;;;;;9.65;1.65;;;;;;;;;;5015669;28;20041;-65
2024/01/19 08:14:05;;;;;;;11.48;1.58;;;;;;;;;;5015126;28;20052;-65
2024/01/19 08:16:31;;;;;;;8.02;1.80;;;;;;;;;;5015980;28;20034;-65
2024/01/19 08:18:57;;;;;;;8.00;1.83;;;;;;;;;;4994036;28;20053;-66
2024/01/19 08:21:23;;;;;;;8.63;1.30;;;;;;;;;;5015119;28;20094;-65
2024/01/19 08:23:50;;;;;;;9.45;1.83;;;;;;;;;;5015704;28;20498;-65
2024/01/19 08:26:16;;;;;;;6.55;1.38;;;;;;;;;;5014193;28;20029;-66
2024/01/19 08:28:45;;;;;;;10.85;1.70;;;;;;;;;;5012570;28;20029;-66
2024/01/19 08:31:12;;;;;;;9.82;1.50;;;;;;;;;;5014121;28;20037;-65
2024/01/19 08:33:38;;;;;;;11.65;1.90;;;;;;;;;;5014592;28;20145;-65
2024/01/19 08:36:04;;;;;;;8.18;1.50;;;;;;;;;;5009824;28;20053;-65
2024/01/19 08:38:30;;;;;;;6.13;1.40;;;;;;;;;;5015474;28;20049;-65
2024/01/19 08:40:56;;;;;;;11.52;2.20;;;;;;;;;;5010158;28;20052;-65
2024/01/19 08:43:22;;;;;;;9.18;1.55;;;;;;;;;;5012688;28;21026;-65
2024/01/19 08:45:48;;;;;;;9.02;1.50;;;;;;;;;;5016202;28;20763;-65
2024/01/19 08:48:15;;;;;;;11.82;2.13;;;;;;;;;;5014704;28;20460;-65
2024/01/19 08:50:41;;;;;;;11.23;1.70;;;;;;;;;;5016795;28;20043;-65
2024/01/19 08:53:07;;;;;;;6.45;1.60;;;;;;;;;;5009605;28;20032;-65
2024/01/19 08:55:34;;;;;;;9.20;1.60;;;;;;;;;;5015408;28;20083;-65
2024/01/19 08:58:00;;;;;;;6.10;1.38;;;;;;;;;;5016374;28;20041;-65
2024/01/19 09:00:26;;;;;;;7.95;1.80;;;;;;;;;;5014830;28;20095;-65
2024/01/19 09:02:52;;;;;;;7.03;1.40;;;;;;;;;;5015414;28;20037;-65
2024/01/19 09:05:19;;;;;;;5.53;1.48;;;;;;;;;;5016651;28;21872;-66
2024/01/19 09:07:45;;;;;;;11.13;1.70;;;;;;;;;;5016005;28;20412;-65
2024/01/19 09:10:11;;;;;;;9.80;1.55;;;;;;;;;;5016300;28;20033;-65
2024/01/19 09:12:37;;;;;;;9.50;1.88;;;;;;;;;;5016784;28;20055;-65
2024/01/19 09:15:04;;;;;;;5.10;1.40;;;;;;;;;;5014842;28;20051;-65
2024/01/19 09:17:30;;;;;;;6.30;1.38;;;;;;;;;;5015484;28;20084;-65
2024/01/19 09:19:56;;;;;;;7.88;1.52;;;;;;;;;;5002263;28;20116;-65
2024/01/19 09:22:22;;;;;;;10.55;1.65;;;;;;;;;;5011205;28;20037;-65
2024/01/19 09:24:48;;;;;;;6.20;1.10;;;;;;;;;;5017511;28;20041;-65
2024/01/19 09:27:14;;;;;;;8.68;1.50;;;;;;;;;;5006657;28;20079;-66
2024/01/19 09:29:40;;;;;;;10.05;1.40;;;;;;;;;;5025103;28;20045;-65
2024/01/19 09:32:06;;;;;;;8.68;2.05;;;;;;;;;;5025353;28;20037;-65
2024/01/19 09:34:32;;;;;;;8.20;1.70;;;;;;;;;;5028568;28;20041;-65
2024/01/19 09:36:58;;;;;;;8.38;1.63;;;;;;;;;;5027921;28;20040;-65
2024/01/19 09:39:24;;;;;;;11.43;1.80;;;;;;;;;;5012258;28;20043;-65
2024/01/19 09:41:52;;;;;;;7.10;1.63;;;;;;;;;;5027965;28;20124;-66
2024/01/19 09:44:19;;;;;;;9.20;1.58;;;;;;;;;;5028915;28;20041;-66
2024/01/19 09:46:51;;;;;;;7.53;1.92;;;;;;;;;;5028302;28;20525;-66
2024/01/19 09:49:17;;;;;;;10.38;2.00;;;;;;;;;;5028712;28;20122;-66
2024/01/19 09:52:04;;;;;;;8.45;1.52;;;;;;;;;;5028865;28;20037;-66
2024/01/19 09:54:34;;;;;;;8.98;2.35;;;;;;;;;;4987946;28;20895;-66
2024/01/19 09:57:00;;;;;;;8.38;1.80;;;;;;;;;;5028672;28;20036;-66
2024/01/19 09:59:34;;;;;;;12.23;1.98;;;;;;;;;;5028080;28;20070;-66
2024/01/19 10:02:00;;;;;;;10.88;1.75;;;;;;;;;;5028413;28;20115;-66
2024/01/19 10:04:27;;;;;;;7.82;1.60;;;;;;;;;;5028506;28;20047;-66
2024/01/19 10:06:53;;;;;;;9.35;1.90;;;;;;;;;;5027531;28;20083;-66
2024/01/19 10:09:20;;;;;;;15.32;2.83;;;;;;;;;;5027838;28;20480;-66
2024/01/19 10:11:53;;;;;;;9.60;1.73;;;;;;;;;;5011642;28;20670;-66
2024/01/19 10:14:20;;;;;;;7.13;1.63;;;;;;;;;;5027806;28;20060;-66
2024/01/19 10:16:50;;;;;;;10.50;2.00;;;;;;;;;;5028130;28;20033;-66
2024/01/19 10:19:16;;;;;;;8.23;1.92;;;;;;;;;;5027489;28;20107;-66
2024/01/19 10:21:43;;;;;;;9.50;2.25;;;;;;;;;;5028292;28;20021;-66
2024/01/19 10:24:09;;;;;;;8.68;1.70;;;;;;;;;;5027358;28;20794;-66
2024/01/19 10:26:39;;;;;;;6.68;1.38;;;;;;;;;;5027981;28;20400;-66
2024/01/19 10:29:11;;;;;;;8.10;1.48;;;;;;;;;;5027293;28;20029;-66
2024/01/19 10:31:37;;;;;;;9.98;2.17;;;;;;;;;;5027859;28;20056;-66
2024/01/19 10:34:03;;;;;;;8.93;1.75;;;;;;;;;;5027944;28;20116;-66
2024/01/19 10:36:38;;;;;;;14.52;1.90;;;;;;;;;;5027509;28;20061;-66
2024/01/19 10:39:30;;;;;;;10.02;1.85;;;;;;;;;;5027669;28;20040;-66
2024/01/19 10:42:06;;;;;;;7.47;2.00;;;;;;;;;;5022880;28;20057;-66
2024/01/19 10:44:33;;;;;;;11.43;2.55;;;;;;;;;;5026714;28;20021;-66
2024/01/19 10:46:59;;;;;;;6.93;1.98;;;;;;;;;;5026020;28;20048;-66
2024/01/19 10:49:25;;;;;;;10.52;1.83;;;;;;;;;;5025318;28;20068;-66
2024/01/19 10:51:51;;;;;;;8.32;1.85;;;;;;;;;;5025862;28;20090;-66
2024/01/19 10:54:25;;;;;;;11.55;1.73;;;;;;;;;;5010033;28;20052;-66
2024/01/19 10:56:51;;;;;;;;;;;;;;;;;;5027072;28;20583;-66
2024/01/19 10:59:17;;;;;;;12.05;2.00;;;;;;;;;;5026723;28;19917;-66
2024/01/19 11:01:43;;;;;;;10.43;2.00;;;;;;;;;;5026788;28;20625;-66
2024/01/19 11:04:11;;;;;;;8.00;1.73;;;;;;;;;;5027378;28;20033;-67
2024/01/19 11:06:37;;;;;;;11.88;2.08;;;;;;;;;;5026698;28;20021;-66
2024/01/19 11:09:07;;;;;;;11.15;2.00;;;;;;;;;;5026996;28;20032;-66
2024/01/19 11:11:47;;;;;;;8.90;1.98;;;;;;;;;;5026503;28;20373;-66
2024/01/19 11:14:17;;;;;;;11.02;1.90;;;;;;;;;;5025756;28;20108;-66
2024/01/19 11:16:46;;;;;;;8.82;1.70;;;;;;;;;;5025866;28;20025;-66
2024/01/19 11:19:13;;;;;;;9.85;2.00;;;;;;;;;;5026622;28;20071;-66
2024/01/19 11:21:41;;;;;;;8.35;1.65;;;;;;;;;;5027672;28;20045;-66
2024/01/19 11:24:07;;;;;;;8.48;1.90;;;;;;;;;;5027623;28;20036;-66
2024/01/19 11:26:37;;;;;;;8.75;1.55;;;;;;;;;;5027560;28;20033;-66
2024/01/19 11:29:25;;;;;;;9.52;1.27;;;;;;;;;;5027000;28;20036;-66
2024/01/19 11:31:51;;;;;;;12.15;2.03;;;;;;;;;;5013828;28;20046;-67
2024/01/19 11:34:36;;;;;;;10.95;1.48;;;;;;;;;;5026837;28;20033;-66
2024/01/19 11:37:02;;;;;;;10.23;1.10;;;;;;;;;;5026818;28;20090;-66
2024/01/19 11:39:39;;;;;;;8.35;1.60;;;;;;;;;;5027457;28;20033;-67
2024/01/19 11:42:05;;;;;;;8.88;1.48;;;;;;;;;;5026240;28;20036;-66
2024/01/19 11:44:45;;;;;;;6.75;1.25;;;;;;;;;;5026718;28;20033;-66
2024/01/19 11:47:30;;;;;;;9.98;1.83;;;;;;;;;;5026150;28;20140;-66
2024/01/19 11:49:56;;;;;;;8.18;1.75;;;;;;;;;;5026279;28;20455;-66
2024/01/19 11:52:22;;;;;;;6.80;1.27;;;;;;;;;;5026445;28;20131;-66
2024/01/19 11:54:48;;;;;;;11.05;1.55;;;;;;;;;;5027260;28;20619;-67
2024/01/19 11:57:25;;;;;;;4.65;1.10;;;;;;;;;;5026173;28;20652;-66
2024/01/19 11:59:53;;;;;;;7.47;1.55;;;;;;;;;;5010412;28;20033;-66
2024/01/19 12:02:21;;;;;;;7.32;1.35;;;;;;;;;;5024060;28;20037;-66
2024/01/19 12:04:48;;;;;;;7.53;1.17;;;;;;;;;;5025553;28;20017;-67
2024/01/19 12:07:23;;;;;;;8.93;1.50;;;;;;;;;;5025961;28;20099;-67
2024/01/19 12:10:09;;;;;;;13.80;1.55;;;;;;;;;;5025340;28;20043;-67
2024/01/19 12:12:35;;;;;;;8.73;1.15;;;;;;;;;;5025997;28;20145;-67
2024/01/19 12:15:03;;;;;;;9.73;1.70;;;;;;;;;;5025095;28;20443;-67
2024/01/19 12:17:29;;;;;;;10.63;1.95;;;;;;;;;;5026287;28;20123;-66
2024/01/19 12:19:55;;;;;;;8.60;1.40;;;;;;;;;;5025739;28;20992;-66
2024/01/19 12:22:21;;;;;;;9.13;1.35;;;;;;;;;;5025626;28;20029;-67
2024/01/19 12:24:47;;;;;;;11.65;1.50;;;;;;;;;;5025878;28;20472;-67
2024/01/19 12:27:20;;;;;;;5.78;1.20;;;;;;;;;;5025732;28;20029;-66
2024/01/19 12:29:46;;;;;;;10.00;1.20;;;;;;;;;;5025911;28;20040;-66
2024/01/19 12:32:13;;;;;;;6.28;1.15;;;;;;;;;;5026165;28;20037;-66
2024/01/19 12:34:40;;;;;;;9.00;1.20;;;;;;;;;;5025580;28;20320;-67
2024/01/19 12:37:06;;;;;;;10.30;1.63;;;;;;;;;;5025212;28;20697;-67
2024/01/19 12:39:32;;;;;;;10.88;1.65;;;;;;;;;;5026425;28;20086;-67
2024/01/19 12:42:05;;;;;;;9.63;1.27;;;;;;;;;;5025802;28;20033;-67
2024/01/19 12:44:34;;;;;;;11.80;1.17;;;;;;;;;;5026909;28;20044;-67
2024/01/19 12:47:00;;;;;;;9.52;1.35;;;;;;;;;;5025710;28;20033;-67
2024/01/19 12:49:26;;;;;;;9.68;1.20;;;;;;;;;;5025368;28;20551;-67
2024/01/19 12:51:53;;;;;;;11.10;1.58;;;;;;;;;;5024418;28;20072;-67
2024/01/19 12:54:19;;;;;;;9.98;1.40;;;;;;;;;;5025543;28;20127;-67
2024/01/19 12:56:48;;;;;;;10.63;1.23;;;;;;;;;;5024923;28;20534;-67
2024/01/19 12:59:21;;;;;;;6.13;1.00;;;;;;;;;;5026018;28;20013;-67
2024/01/19 13:01:48;;;;;;;7.88;1.45;;;;;;;;;;5025926;28;21984;-67
2024/01/19 13:04:16;;;;;;;6.35;1.30;;;;;;;;;;5026332;28;20933;-67
2024/01/19 13:06:43;;;;;;;5.22;1.02;;;;;;;;;;5025893;28;20029;-67
2024/01/19 13:09:09;;;;;;;5.90;1.17;;;;;;;;;;5028519;28;20381;-67
2024/01/19 13:11:36;;;;;;;7.70;1.20;;;;;;;;;;5028626;28;20037;-66
2024/01/19 13:14:03;;;;;;;6.70;0.98;;;;;;;;;;5028231;28;20135;-67
2024/01/19 13:16:29;;;;;;;7.53;1.45;;;;;;;;;;5025884;28;21287;-67
2024/01/19 13:19:01;;;;;;;8.98;1.40;;;;;;;;;;5027152;28;20083;-67
2024/01/19 13:21:28;;;;;;;6.13;1.08;;;;;;;;;;5020881;28;20044;-66
2024/01/19 13:23:54;;;;;;;10.23;1.30;;;;;;;;;;5019427;28;20055;-66
2024/01/19 13:26:20;;;;;;;7.78;1.27;;;;;;;;;;5004760;28;20048;-66
2024/01/19 13:28:48;;;;;;;6.15;1.02;;;;;;;;;;5021690;28;20693;-66
2024/01/19 13:31:15;;;;;;;7.22;1.35;;;;;;;;;;5021727;28;20048;-67
2024/01/19 13:33:42;;;;;;;11.15;1.30;;;;;;;;;;5021101;28;21256;-66
2024/01/19 13:36:09;;;;;;;7.90;1.08;;;;;;;;;;5022758;28;20123;-66
2024/01/19 13:38:35;;;;;;;6.15;1.23;;;;;;;;;;5020727;28;20052;-66
2024/01/19 13:41:01;;;;;;;5.90;0.93;;;;;;;;;;5021253;28;20048;-66
2024/01/19 13:43:27;;;;;;;5.50;0.90;;;;;;;;;;5020884;28;20033;-66
2024/01/19 13:45:53;;;;;;;5.72;1.20;;;;;;;;;;5020044;28;20036;-66
2024/01/19 13:48:21;;;;;;;6.13;1.20;;;;;;;;;;4998244;28;20041;-66
2024/01/19 13:50:47;;;;;;;6.93;1.15;;;;;;;;;;5019552;28;20061;-67
2024/01/19 13:53:15;;;;;;;7.60;1.52;;;;;;;;;;5020433;28;20033;-66
2024/01/19 13:55:41;;;;;;;9.70;1.65;;;;;;;;;;5020590;28;20041;-66
2024/01/19 13:58:07;;;;;;;7.70;2.40;;;;;;;;;;5018060;28;20032;-66
2024/01/19 14:00:33;;;;;;;8.70;2.65;;;;;;;;;;5019865;28;20033;-66
2024/01/19 14:02:59;;;;;;;13.23;1.45;;;;;;;;;;5020828;28;20040;-67
2024/01/19 14:05:25;;;;;;;9.65;2.28;;;;;;;;;;5024938;28;20043;-67
2024/01/19 14:07:52;;;;;;;6.43;1.35;;;;;;;;;;5012769;28;20037;-66
2024/01/19 14:10:18;;;;;;;9.48;1.30;;;;;;;;;;5014673;28;20037;-66
2024/01/19 14:12:45;;;;;;;8.25;1.27;;;;;;;;;;5015980;28;20059;-66
2024/01/19 14:15:11;;;;;;;8.15;1.92;;;;;;;;;;5016457;28;20155;-66
2024/01/19 14:17:37;;;;;;;8.98;1.42;;;;;;;;;;5015269;28;20404;-66
2024/01/19 14:20:05;;;;;;;10.63;1.70;;;;;;;;;;5013959;28;20436;-66
2024/01/19 14:22:31;;;;;;;11.32;1.88;;;;;;;;;;5017545;28;20133;-66
2024/01/19 14:24:57;;;;;;;6.55;1.83;;;;;;;;;;5018754;28;20622;-66
2024/01/19 14:27:24;;;;;;;7.82;1.35;;;;;;;;;;5017694;28;20507;-66
2024/01/19 14:29:50;;;;;;;10.77;2.08;;;;;;;;;;5016863;28;20152;-66
2024/01/19 14:32:17;;;;;;;12.02;1.63;;;;;;;;;;5017100;28;20028;-66
2024/01/19 14:34:43;;;;;;;11.50;1.90;;;;;;;;;;5018439;28;20033;-66
2024/01/19 14:37:11;;;;;;;9.30;2.13;;;;;;;;;;5018714;28;20046;-66
2024/01/19 14:39:37;;;;;;;6.47;1.85;;;;;;;;;;5018146;28;21873;-67